createdAt,value
2017-12-14T00:01:09.236Z,99.99
2017-12-14T00:02:18.724Z,99.99
2017-12-14T00:03:28.532Z,99.99
2017-12-14T00:04:38.560Z,99.99
2017-12-14T00:05:48.383Z,99.99
2017-12-14T00:06:58.246Z,99.99
2017-12-14T00:08:07.959Z,99.99
2017-12-14T00:09:17.480Z,99.99
2017-12-14T00:10:27.205Z,99.99
2017-12-14T00:11:36.670Z,99.99
2017-12-14T00:12:46.391Z,99.99
2017-12-14T00:13:55.844Z,99.99
2017-12-14T00:15:05.580Z,99.99
2017-12-14T00:16:15.648Z,99.99
2017-12-14T00:17:25.394Z,99.99
2017-12-14T00:18:35.102Z,99.99
2017-12-14T00:19:45.089Z,99.99
2017-12-14T00:20:54.281Z,99.99
2017-12-14T00:22:04.000Z,99.99
2017-12-14T00:23:13.754Z,99.99
2017-12-14T00:24:23.247Z,99.99
2017-12-14T00:25:33.127Z,99.99
2017-12-14T00:26:43.120Z,99.99
2017-12-14T00:27:52.841Z,99.99
2017-12-14T00:29:02.863Z,99.99
2017-12-14T00:30:12.866Z,99.99
2017-12-14T00:31:22.849Z,99.99
2017-12-14T00:32:32.104Z,99.99
2017-12-14T00:33:41.871Z,99.99
2017-12-14T00:34:51.919Z,99.99
2017-12-14T00:36:01.693Z,99.99
2017-12-14T00:37:10.877Z,99.99
2017-12-14T00:38:20.647Z,99.99
2017-12-14T00:39:30.640Z,99.99
2017-12-14T00:40:40.099Z,99.99
2017-12-14T00:41:49.816Z,99.99
2017-12-14T00:42:59.811Z,99.99
2017-12-14T00:44:09.885Z,99.99
2017-12-14T00:45:19.869Z,99.99
2017-12-14T00:46:29.834Z,99.99
2017-12-14T00:47:39.558Z,99.99
2017-12-14T00:48:49.541Z,99.99
2017-12-14T00:49:59.526Z,99.99
2017-12-14T00:51:09.354Z,99.99
2017-12-14T00:52:19.137Z,99.99
2017-12-14T00:53:28.859Z,99.99
2017-12-14T00:54:38.843Z,99.99
2017-12-14T00:55:48.827Z,99.99
2017-12-14T00:56:58.554Z,99.99
2017-12-14T00:58:08.271Z,99.99
2017-12-14T00:59:18.251Z,99.99
2017-12-14T01:00:27.977Z,99.99
2017-12-14T01:01:37.968Z,99.99
2017-12-14T01:02:47.963Z,99.99
2017-12-14T01:03:57.956Z,99.99
2017-12-14T01:05:07.409Z,99.99
2017-12-14T01:06:17.134Z,99.99
2017-12-14T01:07:27.010Z,99.99
2017-12-14T01:08:36.208Z,99.99
2017-12-14T01:09:45.953Z,99.99
2017-12-14T01:10:55.674Z,99.99
2017-12-14T01:12:05.397Z,99.99
2017-12-14T01:13:15.125Z,99.99
2017-12-14T01:14:24.343Z,99.99
2017-12-14T01:15:33.872Z,99.99
2017-12-14T01:16:43.328Z,99.99
2017-12-14T01:17:53.052Z,99.99
2017-12-14T01:19:03.052Z,99.99
2017-12-14T01:20:12.775Z,99.99
2017-12-14T01:21:22.604Z,99.99
2017-12-14T01:22:32.592Z,99.99
2017-12-14T01:23:42.051Z,99.99
2017-12-14T01:24:51.783Z,99.99
2017-12-14T01:26:01.269Z,99.99
2017-12-14T01:27:11.254Z,99.99
2017-12-14T01:28:21.235Z,99.99
2017-12-14T01:29:30.707Z,99.99
2017-12-14T01:30:40.688Z,99.99
2017-12-14T01:31:50.142Z,99.99
2017-12-14T01:32:59.335Z,99.99
2017-12-14T01:34:09.367Z,99.99
2017-12-14T01:35:19.087Z,99.99
2017-12-14T01:36:29.111Z,99.99
2017-12-14T01:37:38.831Z,99.99
2017-12-14T01:38:48.833Z,99.99
2017-12-14T01:39:58.833Z,99.99
2017-12-14T01:41:08.288Z,99.99
2017-12-14T01:42:18.287Z,99.99
2017-12-14T01:43:28.016Z,99.99
2017-12-14T01:44:38.016Z,99.99
2017-12-14T01:45:47.740Z,99.99
2017-12-14T01:46:57.730Z,99.99
2017-12-14T01:48:07.467Z,99.99
2017-12-14T01:49:17.202Z,99.99
2017-12-14T01:50:26.965Z,99.99
2017-12-14T01:51:36.684Z,99.99
2017-12-14T01:52:46.412Z,99.99
2017-12-14T01:53:56.135Z,99.99
2017-12-14T01:55:05.596Z,99.99
2017-12-14T01:56:15.596Z,99.99
2017-12-14T01:57:25.589Z,99.99
2017-12-14T01:58:35.581Z,99.99
2017-12-14T01:59:45.572Z,99.99
2017-12-14T02:00:55.574Z,99.99
2017-12-14T02:02:05.307Z,99.99
2017-12-14T02:03:15.047Z,99.99
2017-12-14T02:04:24.766Z,99.99
2017-12-14T02:05:34.225Z,99.99
2017-12-14T02:06:43.948Z,99.99
2017-12-14T02:07:53.681Z,99.99
2017-12-14T02:09:03.401Z,99.99
2017-12-14T02:10:13.109Z,99.99
2017-12-14T02:11:23.096Z,99.99
2017-12-14T02:12:32.286Z,99.99
2017-12-14T02:13:42.006Z,99.99
2017-12-14T02:14:51.988Z,99.99
2017-12-14T02:16:01.975Z,99.99
2017-12-14T02:17:11.688Z,99.99
2017-12-14T02:18:21.410Z,99.99
2017-12-14T02:19:31.125Z,99.99
2017-12-14T02:20:40.845Z,99.99
2017-12-14T02:21:50.826Z,99.99
2017-12-14T02:23:00.805Z,99.99
2017-12-14T02:24:10.792Z,99.99
2017-12-14T02:25:20.503Z,99.99
2017-12-14T02:26:30.287Z,99.99
2017-12-14T02:27:40.268Z,99.99
2017-12-14T02:28:49.984Z,99.99
2017-12-14T02:29:59.957Z,99.99
2017-12-14T02:31:09.414Z,99.99
2017-12-14T02:32:19.397Z,99.99
2017-12-14T02:33:29.382Z,99.99
2017-12-14T02:34:39.375Z,99.99
2017-12-14T02:35:49.361Z,99.99
2017-12-14T02:36:59.361Z,99.99
2017-12-14T02:38:09.200Z,99.99
2017-12-14T02:39:18.700Z,99.99
2017-12-14T02:40:28.426Z,99.99
2017-12-14T02:41:38.178Z,99.99
2017-12-14T02:42:47.910Z,99.99
2017-12-14T02:43:57.628Z,99.99
2017-12-14T02:45:07.351Z,99.99
2017-12-14T02:46:17.334Z,99.99
2017-12-14T02:47:27.168Z,99.99
2017-12-14T02:48:37.010Z,99.99
2017-12-14T02:49:46.999Z,99.99
2017-12-14T02:50:57.031Z,99.99
2017-12-14T02:52:06.830Z,99.99
2017-12-14T02:53:16.561Z,99.99
2017-12-14T02:54:26.295Z,99.99
2017-12-14T02:55:36.287Z,99.99
2017-12-14T02:56:46.274Z,99.99
2017-12-14T02:57:56.370Z,99.99
2017-12-14T02:59:06.430Z,99.99
2017-12-14T03:00:16.412Z,99.99
2017-12-14T03:01:26.548Z,99.99
2017-12-14T03:02:36.807Z,99.99
2017-12-14T03:03:46.521Z,99.99
2017-12-14T03:04:55.971Z,99.99
2017-12-14T03:06:05.964Z,99.99
2017-12-14T03:07:15.843Z,99.99
2017-12-14T03:08:25.296Z,99.99
2017-12-14T03:09:35.280Z,99.99
2017-12-14T03:10:45.547Z,99.99
2017-12-14T03:11:55.274Z,99.99
2017-12-14T03:13:04.990Z,99.99
2017-12-14T03:14:14.966Z,99.99
2017-12-14T03:15:24.944Z,99.99
2017-12-14T03:16:34.664Z,99.99
2017-12-14T03:17:44.480Z,99.99
2017-12-14T03:18:54.465Z,99.99
2017-12-14T03:20:04.446Z,99.99
2017-12-14T03:21:14.427Z,99.99
2017-12-14T03:22:24.246Z,99.99
2017-12-14T03:23:34.227Z,99.99
2017-12-14T03:24:44.210Z,99.99
2017-12-14T03:25:53.924Z,99.99
2017-12-14T03:27:03.648Z,99.99
2017-12-14T03:28:13.363Z,99.99
2017-12-14T03:29:22.842Z,99.99
2017-12-14T03:30:32.832Z,99.99
2017-12-14T03:31:42.635Z,99.99
2017-12-14T03:32:52.616Z,99.99
2017-12-14T03:34:02.607Z,99.99
2017-12-14T03:35:12.323Z,99.99
2017-12-14T03:36:22.315Z,99.99
2017-12-14T03:37:32.302Z,99.99
2017-12-14T03:38:42.021Z,99.99
2017-12-14T03:39:51.733Z,99.99
2017-12-14T03:41:01.447Z,99.99
2017-12-14T03:42:11.166Z,99.99
2017-12-14T03:43:21.206Z,99.99
2017-12-14T03:44:31.188Z,99.99
2017-12-14T03:45:41.169Z,99.99
2017-12-14T03:46:50.895Z,99.99
2017-12-14T03:48:00.886Z,99.99
2017-12-14T03:49:10.604Z,99.99
2017-12-14T03:50:20.584Z,99.99
2017-12-14T03:51:30.044Z,99.99
2017-12-14T03:52:39.226Z,99.99
2017-12-14T03:53:49.202Z,99.99
2017-12-14T03:54:58.654Z,99.99
2017-12-14T03:56:08.373Z,99.99
2017-12-14T03:57:17.825Z,99.99
2017-12-14T03:58:27.810Z,99.99
2017-12-14T03:59:37.792Z,99.99
2017-12-14T04:00:47.506Z,99.99
2017-12-14T04:01:57.482Z,99.99
2017-12-14T04:03:07.468Z,99.99
2017-12-14T04:04:17.452Z,99.99
2017-12-14T04:05:26.908Z,99.99
2017-12-14T04:06:36.616Z,99.99
2017-12-14T04:07:46.599Z,99.99
2017-12-14T04:08:56.582Z,99.99
2017-12-14T04:10:06.557Z,99.99
2017-12-14T04:11:16.268Z,99.99
2017-12-14T04:12:26.250Z,99.99
2017-12-14T04:13:35.972Z,99.99
2017-12-14T04:14:45.685Z,99.99
2017-12-14T04:15:55.662Z,99.99
2017-12-14T04:17:05.652Z,99.99
2017-12-14T04:18:15.628Z,99.99
2017-12-14T04:19:25.607Z,99.99
2017-12-14T04:20:35.318Z,99.99
2017-12-14T04:21:44.765Z,99.99
2017-12-14T04:22:54.582Z,99.99
2017-12-14T04:24:04.569Z,99.99
2017-12-14T04:25:14.025Z,99.99
2017-12-14T04:26:24.000Z,99.99
2017-12-14T04:27:33.446Z,99.99
2017-12-14T04:28:43.440Z,99.99
2017-12-14T04:29:52.892Z,99.99
2017-12-14T04:31:02.873Z,99.99
2017-12-14T04:32:12.590Z,99.99
2017-12-14T04:33:22.309Z,99.99
2017-12-14T04:34:32.026Z,99.99
2017-12-14T04:35:41.741Z,99.99
2017-12-14T04:36:51.452Z,99.99
2017-12-14T04:38:00.906Z,99.99
2017-12-14T04:39:10.982Z,99.99
2017-12-14T04:40:20.690Z,99.99
2017-12-14T04:41:30.715Z,99.99
2017-12-14T04:42:40.434Z,99.99
2017-12-14T04:43:50.429Z,99.99
2017-12-14T04:44:59.882Z,99.99
2017-12-14T04:46:09.592Z,99.99
2017-12-14T04:47:19.310Z,99.99
2017-12-14T04:48:28.762Z,99.99
2017-12-14T04:49:38.210Z,99.99
2017-12-14T04:50:47.929Z,99.99
2017-12-14T04:51:57.908Z,99.99
2017-12-14T04:53:07.878Z,99.99
2017-12-14T04:54:17.064Z,99.99
2017-12-14T04:55:26.772Z,99.99
2017-12-14T04:56:36.487Z,99.99
2017-12-14T04:57:46.558Z,99.99
2017-12-14T04:58:56.281Z,99.99
2017-12-14T05:00:05.746Z,99.99
2017-12-14T05:01:15.195Z,99.99
2017-12-14T05:02:24.924Z,99.99
2017-12-14T05:03:34.636Z,99.99
2017-12-14T05:04:44.623Z,99.99
2017-12-14T05:05:54.333Z,99.99
2017-12-14T05:07:04.309Z,99.99
2017-12-14T05:08:14.017Z,99.99
2017-12-14T05:09:23.734Z,99.99
2017-12-14T05:10:33.451Z,99.99
2017-12-14T05:11:43.429Z,99.99
2017-12-14T05:12:52.967Z,99.99
2017-12-14T05:14:02.955Z,99.99
2017-12-14T05:15:12.673Z,99.99
2017-12-14T05:16:22.656Z,99.99
2017-12-14T05:17:32.371Z,99.99
2017-12-14T05:18:42.087Z,99.99
2017-12-14T05:19:51.801Z,99.99
2017-12-14T05:21:01.509Z,99.99
2017-12-14T05:22:11.015Z,99.99
2017-12-14T05:23:20.827Z,99.99
2017-12-14T05:24:30.902Z,99.99
2017-12-14T05:25:40.631Z,99.99
2017-12-14T05:26:50.614Z,99.99
2017-12-14T05:28:00.604Z,99.99
2017-12-14T05:29:10.582Z,99.99
2017-12-14T05:30:20.290Z,99.99
2017-12-14T05:31:29.475Z,99.99
2017-12-14T05:32:39.462Z,99.99
2017-12-14T05:33:49.175Z,99.99
2017-12-14T05:34:58.628Z,99.99
2017-12-14T05:36:08.438Z,99.99
2017-12-14T05:37:17.890Z,99.99
2017-12-14T05:38:27.341Z,99.99
2017-12-14T05:39:37.058Z,99.99
2017-12-14T05:40:46.526Z,99.99
2017-12-14T05:41:56.243Z,99.99
2017-12-14T05:43:05.958Z,99.99
2017-12-14T05:44:15.673Z,99.99
2017-12-14T05:45:26.063Z,99.99
2017-12-14T05:46:35.663Z,99.99
2017-12-14T05:47:45.378Z,99.99
2017-12-14T05:48:55.351Z,99.99
2017-12-14T05:50:05.383Z,99.99
2017-12-14T05:51:14.301Z,99.99
2017-12-14T05:52:24.012Z,99.99
2017-12-14T05:53:33.990Z,99.99
2017-12-14T05:54:43.768Z,99.99
2017-12-14T05:55:53.751Z,99.99
2017-12-14T05:57:03.727Z,99.99
2017-12-14T05:58:13.173Z,99.99
2017-12-14T05:59:22.621Z,99.99
2017-12-14T06:00:31.804Z,99.99
2017-12-14T06:01:41.524Z,99.99
2017-12-14T06:02:50.994Z,99.99
2017-12-14T06:04:01.004Z,99.99
2017-12-14T06:05:10.979Z,99.99
2017-12-14T06:06:20.693Z,99.99
2017-12-14T06:07:30.672Z,99.99
2017-12-14T06:08:39.860Z,99.99
2017-12-14T06:09:49.336Z,99.99
2017-12-14T06:10:59.052Z,99.99
2017-12-14T06:12:08.236Z,99.99
2017-12-14T06:13:18.080Z,99.99
2017-12-14T06:14:27.536Z,99.99
2017-12-14T06:15:37.376Z,99.99
2017-12-14T06:16:47.355Z,99.99
2017-12-14T06:17:56.805Z,99.99
2017-12-14T06:19:06.514Z,99.99
2017-12-14T06:20:15.966Z,99.99
2017-12-14T06:21:25.153Z,99.99
2017-12-14T06:22:34.867Z,99.99
2017-12-14T06:23:44.846Z,99.99
2017-12-14T06:24:54.303Z,99.99
2017-12-14T06:26:04.021Z,99.99
2017-12-14T06:27:13.468Z,99.99
2017-12-14T06:28:23.457Z,99.99
2017-12-14T06:29:33.441Z,99.99
2017-12-14T06:30:43.156Z,99.99
2017-12-14T06:31:52.636Z,99.99
2017-12-14T06:33:02.611Z,99.99
2017-12-14T06:34:12.590Z,99.99
2017-12-14T06:35:22.603Z,99.99
2017-12-14T06:36:32.061Z,99.99
2017-12-14T06:37:41.777Z,99.99
2017-12-14T06:38:51.773Z,99.99
2017-12-14T06:40:01.497Z,99.99
2017-12-14T06:41:11.207Z,99.99
2017-12-14T06:42:21.232Z,99.99
2017-12-14T06:43:30.682Z,99.99
2017-12-14T06:44:40.663Z,99.99
2017-12-14T06:45:50.380Z,99.99
2017-12-14T06:46:59.839Z,99.99
2017-12-14T06:48:09.303Z,99.99
2017-12-14T06:49:19.066Z,99.99
2017-12-14T06:50:29.295Z,99.99
2017-12-14T06:51:39.277Z,99.99
2017-12-14T06:52:49.252Z,99.99
2017-12-14T06:53:58.959Z,99.99
2017-12-14T06:55:08.680Z,99.99
2017-12-14T06:56:17.862Z,99.99
2017-12-14T06:57:27.310Z,99.99
2017-12-14T06:58:37.290Z,99.99
2017-12-14T06:59:47.267Z,99.99
2017-12-14T07:00:57.250Z,99.99
2017-12-14T07:02:07.096Z,99.99
2017-12-14T07:03:17.196Z,99.99
2017-12-14T07:04:27.112Z,99.99
2017-12-14T07:05:36.314Z,99.99
2017-12-14T07:06:46.338Z,99.99
2017-12-14T07:07:56.060Z,99.99
2017-12-14T07:09:06.101Z,99.99
2017-12-14T07:10:15.882Z,99.99
2017-12-14T07:11:25.645Z,99.99
2017-12-14T07:12:35.118Z,99.99
2017-12-14T07:13:44.581Z,99.99
2017-12-14T07:14:54.308Z,99.99
2017-12-14T07:16:04.020Z,99.99
2017-12-14T07:17:14.008Z,99.99
2017-12-14T07:18:23.992Z,99.99
2017-12-14T07:19:33.449Z,99.99
2017-12-14T07:20:42.899Z,99.99
2017-12-14T07:21:52.714Z,99.99
2017-12-14T07:23:02.430Z,99.99
2017-12-14T07:24:11.344Z,99.99
2017-12-14T07:25:21.072Z,99.99
2017-12-14T07:26:31.059Z,99.99
2017-12-14T07:27:41.261Z,99.99
2017-12-14T07:28:50.482Z,99.99
2017-12-14T07:30:00.197Z,99.99
2017-12-14T07:31:09.911Z,99.99
2017-12-14T07:32:19.887Z,99.99
2017-12-14T07:33:29.925Z,99.99
2017-12-14T07:34:39.368Z,99.99
2017-12-14T07:35:49.085Z,99.99
2017-12-14T07:36:59.111Z,99.99
2017-12-14T07:38:09.092Z,99.99
2017-12-14T07:39:19.066Z,99.99
2017-12-14T07:40:28.823Z,99.99
2017-12-14T07:41:38.914Z,99.99
2017-12-14T07:42:48.672Z,99.99
2017-12-14T07:43:58.652Z,99.99
2017-12-14T07:45:08.631Z,99.99
2017-12-14T07:46:18.349Z,99.99
2017-12-14T07:47:28.064Z,99.99
2017-12-14T07:48:37.514Z,99.99
2017-12-14T07:49:47.236Z,99.99
2017-12-14T07:50:57.262Z,99.99
2017-12-14T07:52:06.707Z,99.99
2017-12-14T07:53:16.430Z,99.99
2017-12-14T07:54:25.885Z,99.99
2017-12-14T07:55:35.349Z,99.99
2017-12-14T07:56:45.333Z,99.99
2017-12-14T07:57:55.085Z,99.99
2017-12-14T07:59:04.880Z,99.99
2017-12-14T08:00:14.598Z,99.99
2017-12-14T08:01:24.646Z,99.99
2017-12-14T08:02:34.065Z,99.99
2017-12-14T08:03:44.049Z,99.99
2017-12-14T08:04:54.069Z,99.99
2017-12-14T08:06:03.903Z,99.99
2017-12-14T08:07:13.939Z,99.99
2017-12-14T08:08:23.547Z,99.99
2017-12-14T08:09:33.273Z,99.99
2017-12-14T08:10:43.316Z,99.99
2017-12-14T08:11:53.041Z,99.99
2017-12-14T08:13:02.768Z,99.99
2017-12-14T08:14:11.689Z,99.99
2017-12-14T08:15:21.669Z,99.99
2017-12-14T08:16:31.714Z,99.99
2017-12-14T08:17:41.987Z,99.99
2017-12-14T08:18:52.193Z,99.99
2017-12-14T08:20:02.011Z,99.99
2017-12-14T08:21:11.818Z,99.99
2017-12-14T08:22:21.271Z,99.99
2017-12-14T08:23:31.253Z,99.99
2017-12-14T08:24:41.233Z,99.99
2017-12-14T08:25:51.215Z,99.99
2017-12-14T08:27:00.666Z,99.99
2017-12-14T08:28:10.494Z,99.99
2017-12-14T08:29:20.489Z,99.99
2017-12-14T08:30:30.201Z,99.99
2017-12-14T08:31:40.059Z,99.99
2017-12-14T08:32:49.562Z,99.99
2017-12-14T08:33:59.273Z,99.99
2017-12-14T08:35:08.201Z,99.99
2017-12-14T08:36:17.654Z,99.99
2017-12-14T08:37:27.646Z,99.99
2017-12-14T08:38:37.103Z,99.99
2017-12-14T08:39:47.092Z,99.99
2017-12-14T08:40:56.546Z,99.99
2017-12-14T08:42:06.552Z,99.99
2017-12-14T08:43:16.313Z,99.99
2017-12-14T08:44:26.310Z,99.99
2017-12-14T08:45:36.023Z,99.99
2017-12-14T08:46:46.014Z,99.99
2017-12-14T08:47:55.461Z,99.99
2017-12-14T08:49:05.580Z,99.99
2017-12-14T08:50:15.297Z,99.99
2017-12-14T08:51:24.745Z,99.99
2017-12-14T08:52:34.785Z,99.99
2017-12-14T08:53:44.883Z,99.99
2017-12-14T08:54:54.758Z,99.99
2017-12-14T08:56:04.472Z,99.99
2017-12-14T08:57:14.191Z,99.99
2017-12-14T08:58:23.642Z,99.99
2017-12-14T08:59:33.364Z,99.99
2017-12-14T09:00:43.343Z,99.99
2017-12-14T09:01:52.797Z,99.99
2017-12-14T09:03:02.368Z,99.99
2017-12-14T09:04:12.120Z,99.99
2017-12-14T09:05:22.107Z,99.99
2017-12-14T09:06:32.107Z,99.99
2017-12-14T09:07:41.826Z,99.99
2017-12-14T09:08:51.668Z,99.99
2017-12-14T09:10:01.897Z,99.99
2017-12-14T09:11:11.767Z,99.99
2017-12-14T09:12:21.591Z,99.99
2017-12-14T09:13:31.692Z,99.99
2017-12-14T09:14:41.510Z,99.99
2017-12-14T09:15:51.537Z,99.99
2017-12-14T09:17:01.582Z,99.99
2017-12-14T09:18:12.050Z,99.99
2017-12-14T09:19:21.778Z,99.99
2017-12-14T09:20:31.545Z,99.99
2017-12-14T09:21:41.530Z,99.99
2017-12-14T09:22:50.985Z,99.99
2017-12-14T09:24:00.719Z,99.99
2017-12-14T09:25:10.184Z,99.99
2017-12-14T09:26:19.931Z,99.99
2017-12-14T09:27:29.685Z,99.99
2017-12-14T09:28:39.794Z,99.99
2017-12-14T09:29:49.246Z,99.99
2017-12-14T09:30:58.697Z,99.99
2017-12-14T09:32:08.736Z,99.99
2017-12-14T09:33:18.458Z,99.99
2017-12-14T09:34:28.439Z,99.99
2017-12-14T09:35:38.421Z,99.99
2017-12-14T09:36:48.409Z,99.99
2017-12-14T09:37:57.925Z,99.99
2017-12-14T09:39:07.916Z,99.99
2017-12-14T09:40:17.897Z,99.99
2017-12-14T09:41:27.923Z,99.99
2017-12-14T09:42:37.376Z,99.99
2017-12-14T09:43:47.097Z,99.99
2017-12-14T09:44:56.287Z,99.99
2017-12-14T09:46:05.745Z,99.99
2017-12-14T09:47:15.477Z,99.99
2017-12-14T09:48:25.194Z,99.99
2017-12-14T09:49:35.040Z,99.99
2017-12-14T09:50:44.770Z,99.99
2017-12-14T09:51:54.488Z,99.99
2017-12-14T09:53:04.475Z,99.99
2017-12-14T09:54:14.202Z,99.99
2017-12-14T09:55:24.206Z,99.99
2017-12-14T09:56:34.187Z,99.99
2017-12-14T09:57:43.955Z,99.99
2017-12-14T09:58:53.959Z,99.99
2017-12-14T10:00:03.814Z,99.99
2017-12-14T10:01:13.808Z,99.99
2017-12-14T10:02:23.532Z,99.99
2017-12-14T10:03:33.270Z,99.99
2017-12-14T10:04:42.720Z,99.99
2017-12-14T10:05:52.760Z,99.99
2017-12-14T10:07:02.535Z,99.99
2017-12-14T10:08:12.250Z,99.99
2017-12-14T10:09:22.258Z,99.99
2017-12-14T10:10:32.015Z,99.99
2017-12-14T10:11:41.247Z,99.99
2017-12-14T10:12:51.227Z,99.99
2017-12-14T10:14:01.212Z,99.99
2017-12-14T10:15:10.984Z,99.99
2017-12-14T10:16:20.811Z,99.99
2017-12-14T10:17:30.536Z,99.99
2017-12-14T10:18:40.312Z,99.99
2017-12-14T10:19:50.365Z,99.99
2017-12-14T10:21:00.299Z,98.92
2017-12-14T10:22:10.075Z,97.12
2017-12-14T10:23:19.535Z,98.64
2017-12-14T10:24:29.518Z,97.78
2017-12-14T10:25:39.250Z,99.99
2017-12-14T10:26:48.744Z,99.97
2017-12-14T10:27:58.242Z,98.87
2017-12-14T10:29:07.983Z,99.99
2017-12-14T10:30:17.478Z,99.99
2017-12-14T10:31:27.268Z,99.99
2017-12-14T10:32:37.010Z,99.99
2017-12-14T10:33:46.991Z,99.99
2017-12-14T10:34:57.010Z,99.99
2017-12-14T10:36:06.787Z,99.73
2017-12-14T10:37:16.389Z,99.06
2017-12-14T10:38:26.425Z,99.91
2017-12-14T10:39:36.277Z,99.99
2017-12-14T10:40:46.457Z,99.99
2017-12-14T10:41:56.446Z,99.99
2017-12-14T10:43:06.436Z,99.99
2017-12-14T10:44:16.149Z,99.99
2017-12-14T10:45:26.126Z,99.99
2017-12-14T10:46:36.254Z,99.99
2017-12-14T10:47:46.441Z,99.99
2017-12-14T10:48:56.844Z,99.99
2017-12-14T10:50:06.662Z,99.99
2017-12-14T10:51:16.159Z,99.99
2017-12-14T10:52:25.879Z,99.99
2017-12-14T10:53:35.664Z,99.99
2017-12-14T10:54:45.385Z,99.99
2017-12-14T10:55:55.387Z,99.99
2017-12-14T10:57:04.935Z,99.99
2017-12-14T10:58:15.024Z,99.99
2017-12-14T10:59:24.478Z,99.99
2017-12-14T11:00:34.208Z,99.99
2017-12-14T11:01:44.528Z,99.99
2017-12-14T11:02:54.064Z,99.99
2017-12-14T11:04:04.198Z,99.99
2017-12-14T11:05:13.890Z,99.99
2017-12-14T11:06:23.704Z,99.87
2017-12-14T11:07:33.425Z,99.99
2017-12-14T11:08:42.873Z,99.99
2017-12-14T11:09:52.602Z,98.97
2017-12-14T11:11:02.589Z,99.82
2017-12-14T11:12:12.588Z,98.26
2017-12-14T11:13:22.582Z,99.02
2017-12-14T11:14:32.110Z,98.45
2017-12-14T11:15:41.828Z,99.4
2017-12-14T11:16:51.635Z,96.93
2017-12-14T11:18:01.151Z,96.69
2017-12-14T11:19:10.885Z,95.84
2017-12-14T11:20:20.617Z,95.46
2017-12-14T11:21:30.332Z,96.22
2017-12-14T11:22:40.062Z,95.08
2017-12-14T11:23:49.522Z,95.55
2017-12-14T11:24:59.658Z,95.46
2017-12-14T11:26:09.427Z,97.92
2017-12-14T11:27:18.876Z,96.83
2017-12-14T11:28:28.340Z,97.22
2017-12-14T11:29:38.073Z,97.78
2017-12-14T11:30:47.832Z,97.6
2017-12-14T11:31:57.028Z,98.87
2017-12-14T11:33:07.083Z,99.99
2017-12-14T11:34:16.572Z,98.59
2017-12-14T11:35:26.055Z,98.97
2017-12-14T11:36:35.506Z,98.87
2017-12-14T11:37:45.249Z,99.91
2017-12-14T11:38:55.026Z,98.87
2017-12-14T11:40:04.789Z,99.44
2017-12-14T11:41:14.511Z,99.91
2017-12-14T11:42:24.239Z,99.26
2017-12-14T11:43:33.696Z,99.73
2017-12-14T11:44:43.152Z,98.87
2017-12-14T11:45:52.614Z,98.02
2017-12-14T11:47:02.333Z,99.06
2017-12-14T11:48:11.790Z,99.91
2017-12-14T11:49:21.516Z,98.97
2017-12-14T11:50:31.294Z,98.97
2017-12-14T11:51:41.021Z,99.99
2017-12-14T11:52:50.742Z,99.91
2017-12-14T11:54:00.469Z,99.99
2017-12-14T11:55:10.209Z,99.35
2017-12-14T11:56:19.960Z,99.99
2017-12-14T11:57:30.036Z,99.99
2017-12-14T11:58:40.072Z,98.97
2017-12-14T11:59:49.524Z,99.35
2017-12-14T12:00:59.246Z,99.99
2017-12-14T12:02:08.442Z,98.3
2017-12-14T12:03:18.435Z,99.99
2017-12-14T12:04:28.430Z,99.99
2017-12-14T12:05:37.882Z,99.99
2017-12-14T12:06:47.941Z,99.99
2017-12-14T12:07:57.685Z,99.99
2017-12-14T12:09:07.680Z,99.99
2017-12-14T12:10:17.432Z,99.99
2017-12-14T12:11:27.195Z,99.99
2017-12-14T12:12:36.650Z,99.99
2017-12-14T12:13:46.365Z,99.99
2017-12-14T12:14:56.099Z,99.99
2017-12-14T12:16:06.080Z,99.99
2017-12-14T12:17:15.796Z,99.99
2017-12-14T12:18:25.536Z,99.99
2017-12-14T12:19:34.987Z,99.99
2017-12-14T12:20:44.456Z,99.99
2017-12-14T12:21:54.197Z,99.99
2017-12-14T12:23:04.187Z,99.99
2017-12-14T12:24:14.010Z,99.16
2017-12-14T12:25:23.731Z,99.99
2017-12-14T12:26:33.214Z,99.06
2017-12-14T12:27:42.134Z,99.35
2017-12-14T12:28:52.117Z,99.91
2017-12-14T12:30:01.571Z,99.06
2017-12-14T12:31:11.622Z,98.3
2017-12-14T12:32:21.348Z,98.87
2017-12-14T12:33:30.535Z,97.17
2017-12-14T12:34:40.255Z,98.11
2017-12-14T12:35:49.458Z,99.99
2017-12-14T12:36:59.509Z,99.99
2017-12-14T12:38:09.250Z,99.91
2017-12-14T12:39:18.746Z,99.99
2017-12-14T12:40:28.462Z,99.99
2017-12-14T12:41:37.657Z,99.16
2017-12-14T12:42:47.650Z,99.35
2017-12-14T12:43:57.659Z,99.99
2017-12-14T12:45:07.129Z,99.99
2017-12-14T12:46:16.367Z,99.99
2017-12-14T12:47:26.131Z,99.99
2017-12-14T12:48:36.112Z,99.99
2017-12-14T12:49:46.090Z,99.99
2017-12-14T12:50:55.742Z,99.82
2017-12-14T12:52:05.193Z,99.99
2017-12-14T12:53:14.656Z,99.44
2017-12-14T12:54:24.769Z,99.99
2017-12-14T12:55:34.507Z,99.16
2017-12-14T12:56:44.104Z,98.59
2017-12-14T12:57:54.097Z,98.87
2017-12-14T12:59:03.604Z,99.99
2017-12-14T13:00:13.635Z,99.99
2017-12-14T13:01:23.693Z,99.99
2017-12-14T13:02:33.139Z,99.99
2017-12-14T13:03:42.922Z,99.06
2017-12-14T13:04:52.913Z,99.26
2017-12-14T13:06:02.920Z,99.99
2017-12-14T13:07:12.651Z,99.99
2017-12-14T13:08:22.632Z,99.16
2017-12-14T13:09:32.635Z,98.59
2017-12-14T13:10:42.377Z,99.26
2017-12-14T13:11:52.247Z,99.99
2017-12-14T13:13:01.435Z,99.99
2017-12-14T13:14:11.148Z,99.99
2017-12-14T13:15:21.133Z,99.99
2017-12-14T13:16:31.132Z,99.44
2017-12-14T13:17:40.866Z,99.35
2017-12-14T13:18:50.720Z,99.99
2017-12-14T13:20:00.707Z,98.3
2017-12-14T13:21:10.159Z,99.82
2017-12-14T13:22:19.664Z,99.35
2017-12-14T13:23:29.437Z,99.99
2017-12-14T13:24:39.443Z,99.99
2017-12-14T13:25:49.176Z,99.99
2017-12-14T13:26:58.686Z,99.99
2017-12-14T13:28:08.762Z,99.99
2017-12-14T13:29:18.213Z,99.99
2017-12-14T13:30:27.704Z,99.99
2017-12-14T13:31:37.693Z,99.99
2017-12-14T13:32:47.414Z,99.99
2017-12-14T13:33:56.890Z,99.99
2017-12-14T13:35:06.878Z,99.99
2017-12-14T13:36:16.906Z,99.91
2017-12-14T13:37:26.376Z,99.91
2017-12-14T13:38:36.092Z,99.99
2017-12-14T13:39:45.947Z,99.73
2017-12-14T13:40:55.549Z,99.99
2017-12-14T13:42:04.615Z,99.91
2017-12-14T13:43:14.386Z,99.06
2017-12-14T13:44:24.367Z,98.49
2017-12-14T13:45:34.096Z,98.59
2017-12-14T13:46:43.816Z,99.06
2017-12-14T13:47:53.542Z,99.06
2017-12-14T13:49:03.283Z,98.3
2017-12-14T13:50:13.299Z,99.99
2017-12-14T13:51:23.589Z,98.68
2017-12-14T13:52:33.602Z,99.54
2017-12-14T13:53:43.352Z,99.63
2017-12-14T13:54:53.369Z,98.87
2017-12-14T13:56:03.361Z,99.99
2017-12-14T13:57:13.456Z,99.99
2017-12-14T13:58:23.272Z,99.99
2017-12-14T13:59:33.262Z,99.99
2017-12-14T14:00:43.262Z,99.99
2017-12-14T14:01:53.272Z,99.82
2017-12-14T14:03:03.026Z,99.26
2017-12-14T14:04:13.121Z,99.99
2017-12-14T14:05:23.123Z,99.99
2017-12-14T14:06:33.116Z,99.99
2017-12-14T14:07:42.576Z,99.99
2017-12-14T14:08:52.310Z,99.63
2017-12-14T14:10:01.777Z,99.99
2017-12-14T14:11:11.541Z,99.06
2017-12-14T14:12:21.230Z,99.06
2017-12-14T14:13:30.966Z,99.99
2017-12-14T14:14:40.420Z,99.99
2017-12-14T14:15:50.143Z,98.97
2017-12-14T14:16:59.658Z,99.06
2017-12-14T14:18:10.125Z,98.97
2017-12-14T14:19:19.876Z,99.99
2017-12-14T14:20:29.966Z,99.99
2017-12-14T14:21:40.247Z,99.54
2017-12-14T14:22:50.073Z,99.91
2017-12-14T14:23:59.257Z,99.68
2017-12-14T14:25:09.254Z,99.99
2017-12-14T14:26:18.987Z,99.99
2017-12-14T14:27:28.702Z,99.99
2017-12-14T14:28:38.160Z,99.99
2017-12-14T14:29:48.147Z,99.99
2017-12-14T14:30:57.336Z,99.96
2017-12-14T14:32:07.083Z,99.99
2017-12-14T14:33:16.804Z,99.99
2017-12-14T14:34:26.530Z,99.99
2017-12-14T14:35:36.000Z,99.99
2017-12-14T14:36:45.978Z,99.99
2017-12-14T14:37:55.756Z,99.99
2017-12-14T14:39:05.745Z,99.99
2017-12-14T14:40:15.206Z,99.99
2017-12-14T14:41:24.663Z,99.99
2017-12-14T14:42:34.396Z,99.99
2017-12-14T14:43:44.117Z,99.99
2017-12-14T14:44:53.574Z,99.99
2017-12-14T14:46:03.302Z,99.99
2017-12-14T14:47:12.788Z,99.99
2017-12-14T14:48:22.825Z,99.99
2017-12-14T14:49:32.597Z,99.99
2017-12-14T14:50:42.048Z,99.99
2017-12-14T14:51:52.046Z,99.99
2017-12-14T14:53:01.768Z,99.99
2017-12-14T14:54:11.533Z,99.99
2017-12-14T14:55:21.298Z,99.99
2017-12-14T14:56:31.034Z,99.99
2017-12-14T14:57:41.018Z,99.99
2017-12-14T14:58:50.215Z,99.99